createdAt,value
2024-02-15T00:00:03.092Z,90.23
2024-02-15T00:02:30.245Z,90.52
2024-02-15T00:04:58.014Z,90.35
2024-02-15T00:07:25.038Z,90.16
2024-02-15T00:09:52.644Z,90.50
2024-02-15T00:12:19.847Z,90.66
2024-02-15T00:14:46.963Z,90.15
2024-02-15T00:17:14.265Z,90.74
2024-02-15T00:19:42.986Z,90.69
2024-02-15T00:22:11.058Z,90.06
2024-02-15T00:24:43.151Z,90.22
2024-02-15T00:27:12.394Z,90.32
2024-02-15T00:29:41.763Z,90.28
2024-02-15T00:32:09.324Z,90.34
2024-02-15T00:34:36.607Z,90.88
2024-02-15T00:37:04.067Z,90.77
2024-02-15T00:39:30.870Z,90.44
2024-02-15T00:41:57.730Z,90.35
2024-02-15T00:44:24.764Z,90.51
2024-02-15T00:46:51.978Z,90.59
2024-02-15T00:49:21.879Z,90.82
2024-02-15T00:51:49.004Z,90.47
2024-02-15T00:54:16.599Z,90.21
2024-02-15T00:56:43.605Z,90.37
2024-02-15T00:59:10.886Z,90.65
2024-02-15T01:01:42.189Z,90.83
2024-02-15T01:04:09.275Z,90.78
2024-02-15T01:06:36.150Z,90.85
2024-02-15T01:09:04.534Z,90.82
2024-02-15T01:11:36.161Z,90.78
2024-02-15T01:14:03.108Z,90.58
2024-02-15T01:16:30.188Z,90.32
2024-02-15T01:18:57.217Z,90.48
2024-02-15T01:21:24.188Z,90.39
2024-02-15T01:23:51.184Z,90.54
2024-02-15T01:26:18.037Z,90.91
2024-02-15T01:28:44.940Z,90.98
2024-02-15T01:31:12.591Z,90.75
2024-02-15T01:33:39.634Z,91.01
2024-02-15T01:36:07.203Z,90.59
2024-02-15T01:38:34.167Z,90.56
2024-02-15T01:41:01.076Z,91.11
2024-02-15T01:43:27.891Z,90.64
2024-02-15T01:45:55.270Z,90.67
2024-02-15T01:48:22.317Z,90.56
2024-02-15T01:50:49.974Z,90.41
2024-02-15T01:53:18.647Z,90.41
2024-02-15T01:55:45.619Z,90.88
2024-02-15T01:58:12.819Z,90.73
2024-02-15T02:00:40.925Z,90.51
2024-02-15T02:03:11.002Z,90.52
2024-02-15T02:05:38.563Z,90.50
2024-02-15T02:08:10.627Z,90.16
2024-02-15T02:10:41.204Z,90.75
2024-02-15T02:13:08.214Z,90.33
2024-02-15T02:15:35.697Z,90.83
2024-02-15T02:18:03.143Z,90.43
2024-02-15T02:20:30.465Z,90.36
2024-02-15T02:23:14.587Z,90.44
2024-02-15T02:25:43.677Z,90.78
2024-02-15T02:28:11.317Z,90.75
2024-02-15T02:30:38.467Z,90.74
2024-02-15T02:33:08.713Z,90.73
2024-02-15T02:35:35.603Z,90.62
2024-02-15T02:38:03.877Z,90.19
2024-02-15T02:40:30.789Z,90.56
2024-02-15T02:43:00.442Z,90.47
2024-02-15T02:45:27.360Z,90.56
2024-02-15T02:47:55.155Z,90.42
2024-02-15T02:50:24.079Z,90.49
2024-02-15T02:52:51.503Z,90.34
2024-02-15T02:55:18.786Z,90.13
2024-02-15T02:57:45.597Z,90.55
2024-02-15T03:00:16.318Z,90.27
2024-02-15T03:02:47.759Z,90.36
2024-02-15T03:05:14.972Z,90.24
2024-02-15T03:07:42.317Z,90.31
2024-02-15T03:10:11.078Z,90.63
2024-02-15T03:12:38.942Z,90.50
2024-02-15T03:15:12.539Z,90.72
2024-02-15T03:17:42.752Z,91.01
2024-02-15T03:20:28.733Z,90.53
2024-02-15T03:23:00.049Z,90.66
2024-02-15T03:25:30.074Z,90.56
2024-02-15T03:28:04.553Z,90.30
2024-02-15T03:30:35.288Z,90.41
2024-02-15T03:33:06.683Z,90.61
2024-02-15T03:35:34.250Z,90.50
2024-02-15T03:38:02.218Z,90.40
2024-02-15T03:40:30.229Z,90.82
2024-02-15T03:42:57.711Z,90.55
2024-02-15T03:45:26.320Z,90.94
2024-02-15T03:47:54.143Z,90.58
2024-02-15T03:50:23.251Z,90.78
2024-02-15T03:52:51.502Z,90.59
2024-02-15T03:55:18.971Z,90.86
2024-02-15T03:57:47.181Z,90.97
2024-02-15T04:00:22.858Z,90.88
2024-02-15T04:02:50.759Z,90.37
2024-02-15T04:05:20.109Z,90.73
2024-02-15T04:07:47.371Z,90.64
2024-02-15T04:10:14.366Z,90.42
2024-02-15T04:12:43.679Z,90.55
2024-02-15T04:15:14.472Z,90.96
2024-02-15T04:17:43.653Z,90.51
2024-02-15T04:20:13.443Z,90.93
2024-02-15T04:22:43.803Z,90.65
2024-02-15T04:25:12.092Z,91.08
2024-02-15T04:27:40.022Z,90.95
2024-02-15T04:30:09.295Z,90.81
2024-02-15T04:32:37.898Z,91.21
2024-02-15T04:35:08.417Z,90.60
2024-02-15T04:37:37.800Z,90.54
2024-02-15T04:40:12.391Z,90.79
2024-02-15T04:42:42.215Z,90.52
2024-02-15T04:45:11.438Z,91.00
2024-02-15T04:47:38.596Z,90.81
2024-02-15T04:50:07.522Z,90.68
2024-02-15T04:52:34.818Z,91.21
2024-02-15T04:55:02.341Z,90.79
2024-02-15T04:57:34.458Z,91.26
2024-02-15T05:00:01.355Z,90.50
2024-02-15T05:02:28.332Z,90.58
2024-02-15T05:04:58.376Z,90.93
2024-02-15T05:07:25.439Z,90.79
2024-02-15T05:09:53.369Z,91.16
2024-02-15T05:12:27.075Z,90.97
2024-02-15T05:14:55.052Z,91.16
2024-02-15T05:17:23.505Z,91.36
2024-02-15T05:19:53.738Z,91.17
2024-02-15T05:22:20.680Z,90.92
2024-02-15T05:24:47.488Z,91.06
2024-02-15T05:27:14.524Z,91.06
2024-02-15T05:29:44.656Z,90.94
2024-02-15T05:32:12.089Z,90.77
2024-02-15T05:34:41.523Z,91.05
2024-02-15T05:37:08.944Z,91.35
2024-02-15T05:39:35.796Z,90.93
2024-02-15T05:42:02.901Z,90.87
2024-02-15T05:44:29.952Z,91.55
2024-02-15T05:46:57.667Z,91.26
2024-02-15T05:49:25.441Z,90.95
2024-02-15T05:51:54.929Z,91.03
2024-02-15T05:54:24.483Z,91.36
2024-02-15T05:56:53.896Z,91.74
2024-02-15T05:59:22.164Z,91.16
2024-02-15T06:01:52.284Z,91.64
2024-02-15T06:04:19.747Z,90.99
2024-02-15T06:06:50.550Z,91.36
2024-02-15T06:09:18.628Z,91.09
2024-02-15T06:11:47.081Z,91.04
2024-02-15T06:14:14.332Z,91.10
2024-02-15T06:16:47.147Z,91.69
2024-02-15T06:19:16.082Z,91.53
2024-02-15T06:21:43.660Z,91.24
2024-02-15T06:24:11.854Z,91.63
2024-02-15T06:26:38.967Z,91.63
2024-02-15T06:29:24.591Z,91.63
2024-02-15T06:32:09.759Z,91.73
2024-02-15T06:34:55.142Z,91.55
2024-02-15T06:37:57.057Z,91.29
2024-02-15T06:40:23.939Z,91.57
2024-02-15T06:42:51.500Z,91.77
2024-02-15T06:45:19.258Z,91.82
2024-02-15T06:47:46.306Z,91.40
2024-02-15T06:50:18.231Z,91.54
2024-02-15T06:52:46.245Z,91.29
2024-02-15T06:55:13.572Z,91.80
2024-02-15T06:57:43.142Z,91.85
2024-02-15T07:00:16.532Z,91.64
2024-02-15T07:02:45.778Z,91.69
2024-02-15T07:05:13.244Z,92.02
2024-02-15T07:07:40.509Z,91.95
2024-02-15T07:10:07.975Z,92.04
2024-02-15T07:12:34.949Z,91.60
2024-02-15T07:15:07.296Z,91.86
2024-02-15T07:17:34.350Z,91.31
2024-02-15T07:20:01.435Z,91.37
2024-02-15T07:22:28.333Z,91.88
2024-02-15T07:24:55.180Z,92.02
2024-02-15T07:27:24.869Z,91.53
2024-02-15T07:29:51.893Z,91.84
2024-02-15T07:32:19.265Z,91.43
2024-02-15T07:34:46.941Z,92.25
2024-02-15T07:37:14.067Z,91.68
2024-02-15T07:39:41.412Z,92.06
2024-02-15T07:42:10.000Z,91.85
2024-02-15T07:44:38.020Z,91.33
2024-02-15T07:47:06.026Z,91.90
2024-02-15T07:49:35.007Z,91.67
2024-02-15T07:52:02.048Z,91.66
2024-02-15T07:54:31.106Z,91.74
2024-02-15T07:56:59.514Z,91.74
2024-02-15T07:59:26.678Z,92.12
2024-02-15T08:01:53.612Z,92.17
2024-02-15T08:04:24.504Z,91.94
2024-02-15T08:06:54.836Z,91.66
2024-02-15T08:09:25.288Z,91.30
2024-02-15T08:11:52.560Z,92.09
2024-02-15T08:14:21.894Z,91.59
2024-02-15T08:16:48.794Z,91.55
2024-02-15T08:19:15.864Z,91.92
2024-02-15T08:21:43.502Z,91.17
2024-02-15T08:24:10.722Z,91.38
2024-02-15T08:26:43.242Z,91.82
2024-02-15T08:29:10.724Z,91.92
2024-02-15T08:31:37.950Z,91.13
2024-02-15T08:34:11.541Z,90.96
2024-02-15T08:36:41.112Z,91.93
2024-02-15T08:39:09.613Z,90.86
2024-02-15T08:41:36.804Z,91.36
2024-02-15T08:44:07.363Z,91.27
2024-02-15T08:46:34.264Z,91.50
2024-02-15T08:49:02.182Z,90.99
2024-02-15T08:51:29.338Z,91.06
2024-02-15T08:53:58.871Z,90.96
2024-02-15T08:56:26.514Z,91.76
2024-02-15T08:58:53.432Z,91.83
2024-02-15T09:01:20.448Z,91.37
2024-02-15T09:03:47.520Z,90.72
2024-02-15T09:06:14.804Z,90.68
2024-02-15T09:08:41.914Z,90.78
2024-02-15T09:11:13.422Z,91.12
2024-02-15T09:13:40.442Z,90.60
2024-02-15T09:16:07.459Z,90.98
2024-02-15T09:18:35.164Z,90.68
2024-02-15T09:21:02.308Z,90.26
2024-02-15T09:23:29.179Z,90.81
2024-02-15T09:25:56.102Z,91.06
2024-02-15T09:28:25.899Z,90.14
2024-02-15T09:30:52.989Z,90.90
2024-02-15T09:33:21.556Z,89.96
2024-02-15T09:35:49.343Z,90.03
2024-02-15T09:38:18.146Z,89.92
2024-02-15T09:40:45.770Z,90.77
2024-02-15T09:43:14.571Z,90.62
2024-02-15T09:45:41.656Z,90.44
2024-02-15T09:48:11.825Z,90.96
2024-02-15T09:50:44.138Z,90.37
2024-02-15T09:53:11.198Z,89.95
2024-02-15T09:55:42.725Z,90.35
2024-02-15T09:58:10.584Z,89.61
2024-02-15T10:00:37.840Z,90.08
2024-02-15T10:03:08.118Z,90.43
2024-02-15T10:05:36.040Z,89.98
2024-02-15T10:08:04.237Z,90.53
2024-02-15T10:10:31.086Z,89.17
2024-02-15T10:12:58.213Z,89.93
2024-02-15T10:15:36.441Z,88.85
2024-02-15T10:18:06.355Z,89.96
2024-02-15T10:20:35.630Z,89.35
2024-02-15T10:23:03.310Z,89.26
2024-02-15T10:25:30.821Z,89.20
2024-02-15T10:28:08.766Z,88.49
2024-02-15T10:30:37.396Z,88.67
2024-02-15T10:33:05.494Z,88.57
2024-02-15T10:35:36.610Z,88.20
2024-02-15T10:38:09.143Z,87.62
2024-02-15T10:40:36.400Z,87.65
2024-02-15T10:43:09.569Z,87.72
2024-02-15T10:45:41.156Z,87.78
2024-02-15T10:48:17.004Z,87.50
2024-02-15T10:50:49.314Z,87.73
2024-02-15T10:53:28.832Z,87.85
2024-02-15T10:56:18.215Z,87.55
2024-02-15T10:59:17.537Z,86.33
2024-02-15T11:01:49.395Z,86.56
2024-02-15T11:04:18.897Z,86.64
2024-02-15T11:06:46.854Z,86.20
2024-02-15T11:09:15.096Z,86.28
2024-02-15T11:11:42.891Z,85.31
2024-02-15T11:14:27.787Z,85.00
2024-02-15T11:16:54.749Z,84.94
2024-02-15T11:19:34.112Z,84.69
2024-02-15T11:22:04.930Z,83.90
2024-02-15T11:24:37.514Z,84.23
2024-02-15T11:27:06.634Z,84.15
2024-02-15T11:29:57.626Z,83.72
2024-02-15T11:32:57.513Z,83.56
2024-02-15T11:35:26.814Z,83.13
2024-02-15T11:37:59.594Z,82.99
2024-02-15T11:40:50.650Z,82.61
2024-02-15T11:43:53.493Z,81.89
2024-02-15T11:46:21.192Z,81.85
2024-02-15T11:48:52.567Z,82.07
2024-02-15T11:51:38.713Z,80.73
2024-02-15T11:54:07.945Z,80.95
2024-02-15T11:57:06.041Z,81.46
2024-02-15T11:59:44.414Z,81.22
2024-02-15T12:02:30.194Z,81.07
2024-02-15T12:05:15.512Z,81.17
2024-02-15T12:08:01.225Z,80.62
2024-02-15T12:10:46.539Z,80.57
2024-02-15T12:13:37.564Z,80.56
2024-02-15T12:16:23.250Z,80.35
2024-02-15T12:18:54.207Z,79.54
2024-02-15T12:21:29.214Z,80.07
2024-02-15T12:23:57.426Z,80.08
2024-02-15T12:26:25.238Z,79.67
2024-02-15T12:28:56.314Z,79.95
2024-02-15T12:31:27.659Z,79.81
2024-02-15T12:34:08.604Z,79.56
2024-02-15T12:36:39.809Z,79.36
2024-02-15T12:39:18.847Z,79.58
2024-02-15T12:41:51.317Z,79.33
2024-02-15T12:44:21.742Z,79.09
2024-02-15T12:46:49.313Z,78.84
2024-02-15T12:49:22.241Z,78.87
2024-02-15T12:51:53.972Z,78.44
2024-02-15T12:54:22.676Z,78.27
2024-02-15T12:56:55.543Z,78.22
2024-02-15T12:59:22.496Z,77.88
2024-02-15T13:01:49.926Z,77.87
2024-02-15T13:04:26.533Z,78.68
2024-02-15T13:06:53.473Z,78.04
2024-02-15T13:09:20.464Z,77.23
2024-02-15T13:11:48.397Z,76.96
2024-02-15T13:14:15.236Z,77.41
2024-02-15T13:16:44.640Z,77.51
2024-02-15T13:19:11.609Z,77.32
2024-02-15T13:21:38.460Z,77.30
2024-02-15T13:24:06.255Z,77.30
2024-02-15T13:26:35.275Z,77.47
2024-02-15T13:29:02.101Z,77.84
2024-02-15T13:31:28.896Z,77.87
2024-02-15T13:33:55.910Z,76.97
2024-02-15T13:36:23.339Z,76.75
2024-02-15T13:38:52.907Z,76.95
2024-02-15T13:41:19.973Z,77.45
2024-02-15T13:43:47.028Z,77.62
2024-02-15T13:46:13.907Z,78.26
2024-02-15T13:48:42.019Z,78.83
2024-02-15T13:51:10.671Z,78.06
2024-02-15T13:53:37.719Z,78.32
2024-02-15T13:56:06.624Z,78.63
2024-02-15T13:58:34.244Z,77.23
2024-02-15T14:01:04.453Z,77.09
2024-02-15T14:03:31.917Z,77.35
2024-02-15T14:05:59.148Z,78.22
2024-02-15T14:08:26.992Z,78.41
2024-02-15T14:10:53.905Z,78.81
2024-02-15T14:13:23.212Z,78.64
2024-02-15T14:15:50.445Z,78.95
2024-02-15T14:18:20.955Z,78.80
2024-02-15T14:20:49.011Z,78.21
2024-02-15T14:23:16.716Z,79.04
2024-02-15T14:25:44.463Z,79.80
2024-02-15T14:28:11.677Z,80.22
2024-02-15T14:30:58.947Z,80.13
2024-02-15T14:33:33.119Z,80.50
2024-02-15T14:36:01.768Z,80.44
2024-02-15T14:38:29.100Z,80.99
2024-02-15T14:40:57.082Z,80.95
2024-02-15T14:43:27.104Z,80.31
2024-02-15T14:45:55.449Z,80.56
2024-02-15T14:48:22.922Z,81.09
2024-02-15T14:50:52.720Z,80.87
2024-02-15T14:53:20.418Z,80.58
2024-02-15T14:55:47.777Z,80.99
2024-02-15T14:58:18.316Z,81.10
2024-02-15T15:00:46.741Z,80.67
2024-02-15T15:03:15.083Z,81.34
2024-02-15T15:06:02.191Z,81.24
2024-02-15T15:08:47.345Z,81.84
2024-02-15T15:11:33.297Z,81.46
2024-02-15T15:14:00.211Z,81.52
2024-02-15T15:16:29.399Z,81.69
2024-02-15T15:18:57.587Z,81.44
2024-02-15T15:21:25.348Z,82.00
2024-02-15T15:23:53.331Z,82.13
2024-02-15T15:26:21.750Z,82.35
2024-02-15T15:28:49.662Z,81.90
2024-02-15T15:31:17.150Z,82.04
2024-02-15T15:33:45.150Z,82.39
2024-02-15T15:36:12.846Z,82.16
2024-02-15T15:38:40.824Z,82.52
2024-02-15T15:41:10.862Z,81.97
2024-02-15T15:43:38.971Z,81.93
2024-02-15T15:46:06.752Z,82.00
2024-02-15T15:48:34.661Z,82.25
2024-02-15T15:51:06.581Z,82.30
2024-02-15T15:53:35.536Z,82.59
2024-02-15T15:56:02.986Z,82.25
2024-02-15T15:58:31.242Z,82.54
2024-02-15T16:00:58.214Z,83.02
2024-02-15T16:03:25.226Z,82.55
2024-02-15T16:05:52.490Z,82.54
2024-02-15T16:08:19.422Z,82.61
2024-02-15T16:10:46.907Z,83.07
2024-02-15T16:13:14.111Z,83.63
2024-02-15T16:15:45.101Z,83.21
2024-02-15T16:18:12.178Z,84.20
2024-02-15T16:20:39.802Z,84.38
2024-02-15T16:23:07.743Z,84.65
2024-02-15T16:25:35.452Z,84.14
2024-02-15T16:28:03.701Z,84.86
2024-02-15T16:30:30.698Z,84.85
2024-02-15T16:32:57.724Z,84.88
2024-02-15T16:35:24.667Z,84.55
2024-02-15T16:37:51.605Z,85.57
2024-02-15T16:40:18.477Z,85.70
2024-02-15T16:42:48.821Z,85.87
2024-02-15T16:45:20.990Z,85.27
2024-02-15T16:47:57.897Z,85.68
2024-02-15T16:50:25.631Z,85.41
2024-02-15T16:52:53.224Z,85.84
2024-02-15T16:55:29.595Z,86.51
2024-02-15T16:58:09.572Z,85.74
2024-02-15T17:00:38.030Z,85.62
2024-02-15T17:03:08.190Z,86.40
2024-02-15T17:05:39.574Z,86.13
2024-02-15T17:08:08.322Z,86.01
2024-02-15T17:10:36.976Z,86.19
2024-02-15T17:13:05.497Z,86.46
2024-02-15T17:15:33.191Z,86.53
2024-02-15T17:18:00.415Z,86.44
2024-02-15T17:20:27.410Z,86.83
2024-02-15T17:22:54.399Z,86.35
2024-02-15T17:25:26.463Z,86.41
2024-02-15T17:27:56.900Z,86.79
2024-02-15T17:30:25.019Z,86.88
2024-02-15T17:32:52.276Z,87.53
2024-02-15T17:35:20.505Z,87.13
2024-02-15T17:37:47.365Z,87.78
2024-02-15T17:40:15.295Z,86.76
2024-02-15T17:42:43.910Z,87.25
2024-02-15T17:45:12.833Z,87.56
2024-02-15T17:47:41.644Z,87.12
2024-02-15T17:50:15.506Z,87.77
2024-02-15T17:52:45.085Z,87.50
2024-02-15T17:55:12.304Z,87.47
2024-02-15T17:57:39.936Z,87.44
2024-02-15T18:00:21.089Z,87.93
2024-02-15T18:02:52.786Z,87.98
2024-02-15T18:05:21.492Z,88.15
2024-02-15T18:07:49.912Z,88.01
2024-02-15T18:10:21.526Z,87.79
2024-02-15T18:12:48.546Z,87.93
2024-02-15T18:15:26.068Z,88.17
2024-02-15T18:17:58.153Z,88.22
2024-02-15T18:20:26.108Z,88.16
2024-02-15T18:22:53.720Z,88.17
2024-02-15T18:25:21.078Z,88.32
2024-02-15T18:27:48.734Z,88.09
2024-02-15T18:30:19.914Z,88.19
2024-02-15T18:32:48.259Z,88.59
2024-02-15T18:35:17.860Z,88.65
2024-02-15T18:37:46.813Z,88.17
2024-02-15T18:40:22.787Z,87.99
2024-02-15T18:42:52.886Z,88.34
2024-02-15T18:45:20.498Z,88.51
2024-02-15T18:47:47.668Z,88.28
2024-02-15T18:50:17.057Z,88.39
2024-02-15T18:52:44.754Z,88.36
2024-02-15T18:55:13.489Z,88.18
2024-02-15T18:57:40.513Z,88.26
2024-02-15T19:00:16.315Z,88.27
2024-02-15T19:02:53.273Z,88.52
2024-02-15T19:05:23.870Z,88.18
2024-02-15T19:07:52.135Z,88.41
2024-02-15T19:10:21.121Z,88.71
2024-02-15T19:12:48.300Z,89.03
2024-02-15T19:15:15.969Z,88.45
2024-02-15T19:17:43.145Z,88.30
2024-02-15T19:20:10.719Z,89.16
2024-02-15T19:22:41.441Z,88.43
2024-02-15T19:25:08.480Z,88.59
2024-02-15T19:27:35.462Z,88.45
2024-02-15T19:30:03.949Z,88.39
2024-02-15T19:32:30.876Z,88.71
2024-02-15T19:34:57.945Z,88.57
2024-02-15T19:37:25.555Z,89.34
2024-02-15T19:39:53.812Z,88.42
2024-02-15T19:42:20.850Z,89.17
2024-02-15T19:44:48.064Z,88.72
2024-02-15T19:47:19.610Z,89.09
2024-02-15T19:49:47.263Z,88.66
2024-02-15T19:52:15.939Z,88.72
2024-02-15T19:54:42.847Z,88.73
2024-02-15T19:57:09.770Z,89.07
2024-02-15T19:59:36.615Z,88.72
2024-02-15T20:02:04.065Z,89.04
2024-02-15T20:04:34.622Z,89.30
2024-02-15T20:07:04.355Z,89.15
2024-02-15T20:09:40.425Z,88.96
2024-02-15T20:12:15.181Z,88.79
2024-02-15T20:14:42.831Z,88.96
2024-02-15T20:17:11.814Z,89.66
2024-02-15T20:19:39.532Z,89.01
2024-02-15T20:22:08.532Z,89.47
2024-02-15T20:24:39.048Z,88.68
2024-02-15T20:27:06.240Z,89.35
2024-02-15T20:29:34.160Z,89.83
2024-02-15T20:32:01.173Z,89.16
2024-02-15T20:34:28.368Z,89.87
2024-02-15T20:36:55.346Z,88.88
2024-02-15T20:39:23.003Z,89.66
2024-02-15T20:41:50.753Z,88.98
2024-02-15T20:44:21.086Z,89.32
2024-02-15T20:46:48.013Z,88.81
2024-02-15T20:49:15.258Z,88.83
2024-02-15T20:51:42.411Z,88.95
2024-02-15T20:54:09.414Z,89.61
2024-02-15T20:56:38.095Z,89.01
2024-02-15T20:59:08.610Z,89.33
2024-02-15T21:01:38.081Z,89.45
2024-02-15T21:04:06.902Z,89.42
2024-02-15T21:06:39.047Z,89.00
2024-02-15T21:09:14.589Z,89.32
2024-02-15T21:11:43.381Z,89.66
2024-02-15T21:14:12.523Z,89.28
2024-02-15T21:16:39.391Z,89.55
2024-02-15T21:19:10.639Z,89.91
2024-02-15T21:21:38.265Z,89.94
2024-02-15T21:24:06.958Z,89.20
2024-02-15T21:26:34.369Z,88.96
2024-02-15T21:29:01.285Z,89.48
2024-02-15T21:31:28.151Z,89.83
2024-02-15T21:33:55.678Z,89.42
2024-02-15T21:36:24.163Z,89.66
2024-02-15T21:38:54.372Z,89.67
2024-02-15T21:41:22.525Z,89.68
2024-02-15T21:43:49.452Z,90.21
2024-02-15T21:46:16.528Z,89.11
2024-02-15T21:48:44.005Z,89.80
2024-02-15T21:51:10.968Z,89.62
2024-02-15T21:53:39.544Z,89.27
2024-02-15T21:56:06.759Z,89.82
2024-02-15T21:58:33.646Z,89.26
2024-02-15T22:01:01.391Z,89.76
2024-02-15T22:03:28.389Z,89.24
2024-02-15T22:05:55.406Z,89.40
2024-02-15T22:08:23.142Z,89.42
2024-02-15T22:10:50.615Z,89.40
2024-02-15T22:13:19.292Z,89.95
2024-02-15T22:15:48.768Z,89.70
2024-02-15T22:18:15.984Z,89.52
2024-02-15T22:20:43.107Z,89.17
2024-02-15T22:23:10.595Z,89.27
2024-02-15T22:25:38.898Z,89.06
2024-02-15T22:28:07.145Z,89.03
2024-02-15T22:30:34.049Z,89.52
2024-02-15T22:33:01.141Z,89.44
2024-02-15T22:35:28.258Z,89.05
2024-02-15T22:37:55.539Z,88.93
2024-02-15T22:40:22.513Z,89.15
2024-02-15T22:42:49.570Z,88.79
2024-02-15T22:45:16.660Z,89.64
2024-02-15T22:47:44.896Z,89.22
2024-02-15T22:50:12.661Z,89.61
2024-02-15T22:52:40.522Z,89.60
2024-02-15T22:55:07.830Z,89.37
2024-02-15T22:57:34.783Z,88.94
2024-02-15T23:00:02.292Z,89.59
2024-02-15T23:02:29.624Z,89.37
2024-02-15T23:04:56.754Z,89.77
2024-02-15T23:07:24.933Z,88.90
2024-02-15T23:09:52.143Z,88.93
2024-02-15T23:12:19.094Z,89.56
2024-02-15T23:14:46.098Z,89.22
2024-02-15T23:17:13.235Z,89.61
2024-02-15T23:19:40.989Z,89.42
2024-02-15T23:22:11.506Z,89.18
2024-02-15T23:24:38.916Z,89.41
2024-02-15T23:27:06.857Z,89.05
2024-02-15T23:29:34.013Z,89.40
2024-02-15T23:32:00.876Z,89.44
2024-02-15T23:34:27.762Z,89.43
2024-02-15T23:37:13.126Z,89.04
2024-02-15T23:39:58.584Z,88.82
2024-02-15T23:42:25.686Z,89.11
2024-02-15T23:44:53.061Z,89.12
2024-02-15T23:47:20.097Z,89.17
2024-02-15T23:49:46.942Z,89.03
2024-02-15T23:52:13.851Z,89.01
2024-02-15T23:54:40.777Z,89.44
2024-02-15T23:57:08.067Z,89.23
2024-02-15T23:59:35.229Z,88.91
